Pagina principale
METAR-TAF:

METAR-TAF

Aeroporti :

Kulusuk, Groenlandia

latitudine: 65-35N, longitudine: 037-09W, altezza: 35 m

Osservazione

Il bollettino è stato emesso 3 ore e 25 minuti fa, alle 00:50 UTC
Vento 2 kt da est
Temperature -9°C
Umidità 67%
Pressione 1026 hPa
Visibilità 10 km o più

METAR: BGKK 020050Z AUTO 10002KT 9999NDV OVC068/// M09/M14 Q1026

Ora: 01:15 (04:15 UTC)

Previsione

Il bollettino è stato emesso 14 ore e 5 minuti fa, alle 14:10 UTC
Previsione valida dal 01 alle 15 UTC al 01 alle 19 UTC
Vento 5 kt da direzioni variabili
Visibilità 10 km o più
Nubi sparse ad un'altezza di 10000 ft
Temporaneamente
dal 01 alle 15 UTC al 01 alle 19 UTC
Nuvoloso ad un'altezza di 7000 ft

TAF: BGKK 011410Z 0115/0119 VRB05KT 9999 SCT100 TEMPO 0115/0119 BKN070

Osservazioni e previsioni meteorologiche di più di 4000 aeroporti (messaggi METAR e TAF).

Le stazioni disponibili sono rappresentate dai dischi gialli e rossi sulla carta.

Puntare il mouse per vedere il nome della stazione.

Clicca sopra per visualizzare le osservazioni e previsioni meteorologiche.

Per cambiare la mappa : fare clic sui pulsanti verdi con una croce nera per ingrandire, il pulsante verde con un trattino per diminuire, o sulla freccia verde per le mappe adiacenti.


METAR-TAF: